createdAt,value
2019-04-06T01:15:47.409Z,93.50
2019-04-06T01:20:53.391Z,79.83
2019-04-06T01:26:06.961Z,72.73
2019-04-06T01:31:09.530Z,70.30
2019-04-06T01:36:15.501Z,67.35
2019-04-06T01:41:21.779Z,63.80
2019-04-06T01:46:28.507Z,62.17
2019-04-06T01:51:35.764Z,98.12
2019-04-06T01:56:43.867Z,248.83
2019-04-06T02:02:04.204Z,303.42
2019-04-06T02:07:10.386Z,426.27
2019-04-06T02:12:17.195Z,528.47
2019-04-06T02:17:23.752Z,581.43
2019-04-06T02:22:29.824Z,509.73
2019-04-06T02:32:59.570Z,659.53
2019-04-06T02:38:09.962Z,536.90
2019-04-06T02:43:17.794Z,492.05
2019-04-06T02:53:30.719Z,296.90
2019-04-06T03:13:55.936Z,120.40
2019-04-06T03:19:02.138Z,96.28
2019-04-06T03:44:34.900Z,51.28
2019-04-06T04:05:00.877Z,46.37
2019-04-06T04:10:07.057Z,46.80
2019-04-06T04:20:19.494Z,42.88
2019-04-06T04:40:45.851Z,44.20
2019-04-06T04:45:51.990Z,42.03
2019-04-06T04:56:05.798Z,41.10
2019-04-06T05:06:20.815Z,40.17
2019-04-06T05:11:26.974Z,39.20
2019-04-06T05:31:52.828Z,40.05
2019-04-06T05:36:58.974Z,38.50
2019-04-06T05:57:23.986Z,38.47
2019-04-06T06:38:14.322Z,30.92
2019-04-06T06:48:27.545Z,33.23
2019-04-06T07:03:47.498Z,35.05
2019-04-06T07:24:24.720Z,31.35
2019-04-06T07:29:30.580Z,30.53
2019-04-06T07:34:36.511Z,31.45
2019-04-06T07:39:42.959Z,32.05
2019-04-06T07:49:54.996Z,32.27
2019-04-06T07:55:01.144Z,33.73
2019-04-06T08:00:07.555Z,31.83
2019-04-06T08:05:13.569Z,30.77
2019-04-06T08:10:19.731Z,31.53
2019-04-06T08:15:25.595Z,29.53
2019-04-06T08:20:31.666Z,29.53
2019-04-06T08:25:37.555Z,28.55
2019-04-06T08:30:46.160Z,29.00
2019-04-06T08:35:51.727Z,30.53
2019-04-06T08:40:57.708Z,29.07
2019-04-06T08:46:03.882Z,28.37
2019-04-06T09:01:22.158Z,28.10
2019-04-06T09:06:28.092Z,28.43
2019-04-06T09:16:40.595Z,27.50
2019-04-06T09:21:46.608Z,26.97
2019-04-06T09:26:52.621Z,28.00
2019-04-06T09:31:58.616Z,27.02
2019-04-06T09:37:04.418Z,26.20
2019-04-06T09:42:10.482Z,26.27
2019-04-06T09:47:19.130Z,28.07
2019-04-06T09:57:52.023Z,26.77
2019-04-06T10:03:11.843Z,25.80
2019-04-06T10:08:25.812Z,25.07
2019-04-06T10:13:33.405Z,25.70
2019-04-06T10:18:41.039Z,25.80
2019-04-06T10:24:05.621Z,25.40
2019-04-06T10:29:19.131Z,26.20
2019-04-06T10:34:24.749Z,26.57
2019-04-06T10:39:44.863Z,26.97
2019-04-06T10:50:08.025Z,29.48
2019-04-06T10:55:22.782Z,26.70
2019-04-06T11:00:32.912Z,25.77
2019-04-06T11:05:43.435Z,26.83
2019-04-06T11:10:52.053Z,27.93
2019-04-06T11:16:05.754Z,28.27
2019-04-06T11:21:17.450Z,26.87
2019-04-06T11:26:28.066Z,27.73
2019-04-06T11:32:27.482Z,25.80
2019-04-06T11:37:53.494Z,29.13
2019-04-06T11:43:17.366Z,26.53
2019-04-06T11:48:41.028Z,27.37
2019-04-06T11:53:50.983Z,27.50
2019-04-06T11:59:07.721Z,26.63
2019-04-06T12:04:18.067Z,26.30
2019-04-06T12:14:39.027Z,28.30
2019-04-06T12:25:22.948Z,29.53
2019-04-06T12:30:47.087Z,30.20
2019-04-06T12:41:14.374Z,27.47
2019-04-06T12:46:22.980Z,25.10
2019-04-06T12:51:39.743Z,29.50
2019-04-06T12:56:47.339Z,31.93
2019-04-06T13:01:58.987Z,32.13
2019-04-06T13:07:23.064Z,30.97
2019-04-06T13:12:34.755Z,30.03
2019-04-06T13:17:46.009Z,30.90
2019-04-06T13:22:56.615Z,33.33
2019-04-06T13:28:14.406Z,125.23
2019-04-06T13:33:22.135Z,148.23
2019-04-06T13:38:42.291Z,81.70
2019-04-06T13:43:54.521Z,180.17
2019-04-06T13:49:08.188Z,126.77
2019-04-06T13:54:16.873Z,88.53
2019-04-06T13:59:41.142Z,70.77
2019-04-06T14:05:05.261Z,55.43
2019-04-06T14:10:13.228Z,84.97
2019-04-06T14:15:21.365Z,126.90
2019-04-06T14:20:38.228Z,126.33
2019-04-06T14:25:50.084Z,131.07
2019-04-06T14:31:00.836Z,115.47
2019-04-06T14:41:39.066Z,120.37
2019-04-06T14:51:59.741Z,75.62
2019-04-06T14:57:23.854Z,84.73
2019-04-06T15:02:40.573Z,87.05
2019-04-06T15:18:19.662Z,107.33
2019-04-06T15:23:25.425Z,109.23
2019-04-06T15:28:35.299Z,115.67
2019-04-06T15:33:49.542Z,174.07
2019-04-06T15:39:03.366Z,200.50
2019-04-06T15:44:11.206Z,137.53
2019-04-06T15:49:29.474Z,120.60
2019-04-06T15:54:38.086Z,120.20
2019-04-06T16:05:06.371Z,145.28
2019-04-06T16:10:17.795Z,169.63
2019-04-06T16:15:35.860Z,206.57
2019-04-06T16:20:44.109Z,198.77
2019-04-06T16:25:52.123Z,201.70
2019-04-06T16:36:09.702Z,246.17
2019-04-06T16:46:35.802Z,274.97
2019-04-06T16:51:43.542Z,341.07
2019-04-06T16:56:56.395Z,329.33
2019-04-06T17:02:23.595Z,439.73
2019-04-06T17:07:32.321Z,378.60
2019-04-06T17:12:38.232Z,329.87
2019-04-06T17:17:46.198Z,390.53
2019-04-06T17:34:17.578Z,439.73
2019-04-06T17:39:41.789Z,438.97
2019-04-06T17:44:52.386Z,371.17
2019-04-06T17:50:19.851Z,383.00
2019-04-06T17:55:43.773Z,339.42
2019-04-06T18:01:03.869Z,578.17
2019-04-06T18:06:23.481Z,596.47
2019-04-06T18:11:31.781Z,596.43
2019-04-06T18:16:38.556Z,556.30
2019-04-06T18:21:44.735Z,516.83
2019-04-06T18:26:51.926Z,490.65
2019-04-06T18:37:23.497Z,538.05
2019-04-06T18:42:30.830Z,536.03
2019-04-06T18:47:36.857Z,473.80
2019-04-06T18:52:43.269Z,398.35
2019-04-06T19:03:12.061Z,364.05
2019-04-06T19:13:16.751Z,286.60
2019-04-06T19:18:23.938Z,278.90
2019-04-06T19:43:55.897Z,392.57
2019-04-06T23:36:19.186Z,445.80
2019-04-06T23:41:25.450Z,405.83
2019-04-06T23:46:32.758Z,502.47
2019-04-06T23:51:39.916Z,384.80
2019-04-06T23:56:46.692Z,416.10
